Time;durP1;ratioP1;P1;durP2;ratioP2;P2;SDS_P1;SDS_P2;PMS_P1;PMS_P2;Temp;Humidity;BMP_temperature;BMP_pressure;BME280_temperature;BME280_humidity;BME280_pressure;Samples;Min_cycle;Max_cycle;Signal;HPM_P1;HPM_P2
2023/09/29 00:03:28;;;;;;;3.22;1.85;;;;;;;21.17;70.26;100940.53;10296870;28;98439;-79
2023/09/29 00:08:32;;;;;;;2.70;1.80;;;;;;;21.09;70.45;100949.06;10297878;28;97130;-79
2023/09/29 00:13:38;;;;;;;4.83;1.77;;;;;;;21.01;70.32;100950.59;10296585;28;96717;-79
2023/09/29 00:18:42;;;;;;;3.13;1.63;;;;;;;20.98;70.53;100943.63;10296939;28;97396;-79
2023/09/29 00:23:47;;;;;;;3.70;1.73;;;;;;;21.10;69.93;100956.13;10295231;28;96930;-78
2023/09/29 00:28:50;;;;;;;;;;;;;;;21.06;71.54;100948.44;10296691;28;97290;-79
2023/09/29 00:33:54;;;;;;;3.03;1.80;;;;;;;21.04;70.35;100947.69;10296319;28;96647;-79
2023/09/29 00:38:58;;;;;;;3.78;1.58;;;;;;;20.91;70.61;100942.34;10296147;28;97534;-79
2023/09/29 00:44:02;;;;;;;1.77;1.40;;;;;;;20.85;70.82;100952.63;10295695;28;97001;-79
2023/09/29 00:49:08;;;;;;;2.58;1.70;;;;;;;20.78;71.19;100949.53;10295521;28;96944;-79
2023/09/29 00:54:13;;;;;;;2.95;1.67;;;;;;;20.72;71.40;100947.31;10294743;28;96672;-79
2023/09/29 00:59:16;;;;;;;3.00;1.88;;;;;;;20.60;72.50;100952.66;10255341;28;97043;-79
2023/09/29 01:04:23;;;;;;;3.40;1.63;;;;;;;20.56;72.44;100956.50;10268687;28;96714;-79
2023/09/29 01:09:26;;;;;;;3.22;1.88;;;;;;;20.41;73.09;100953.06;10295600;28;97098;-79
2023/09/29 01:14:30;;;;;;;4.38;2.00;;;;;;;20.28;74.50;100957.53;10294117;28;96659;-79
2023/09/29 01:19:38;;;;;;;3.05;1.60;;;;;;;20.32;73.79;100956.38;10294806;28;96665;-79
2023/09/29 01:24:45;;;;;;;2.30;1.63;;;;;;;20.49;72.56;100952.53;10214107;28;97181;-78
2023/09/29 01:29:48;;;;;;;2.22;1.30;;;;;;;20.57;72.18;100955.56;10213871;28;97336;-79
2023/09/29 01:34:52;;;;;;;2.25;1.55;;;;;;;20.59;71.92;100958.97;10215086;28;97231;-78
2023/09/29 01:39:57;;;;;;;2.03;1.47;;;;;;;20.69;71.40;100950.19;10274846;28;96917;-78
2023/09/29 01:45:03;;;;;;;2.95;1.67;;;;;;;20.56;71.75;100948.47;10296553;28;96575;-79
2023/09/29 01:50:08;;;;;;;2.53;1.58;;;;;;;20.27;73.02;100935.28;10297354;28;97640;-79
2023/09/29 01:55:19;;;;;;;2.42;1.60;;;;;;;20.28;72.90;100934.31;10286880;28;97403;-79
2023/09/29 02:00:25;;;;;;;2.35;1.50;;;;;;;20.26;72.78;100938.91;10254870;28;97094;-79
2023/09/29 02:05:30;;;;;;;3.20;1.80;;;;;;;20.28;72.28;100938.81;10254219;28;97281;-79
2023/09/29 02:10:36;;;;;;;3.40;1.80;;;;;;;20.29;72.58;100941.38;10254881;28;96773;-78
2023/09/29 02:15:42;;;;;;;3.67;1.50;;;;;;;20.34;71.96;100941.09;10294729;28;97037;-78
2023/09/29 02:20:47;;;;;;;3.92;1.83;;;;;;;20.43;71.75;100939.63;10295482;28;96756;-79
2023/09/29 02:25:52;;;;;;;2.72;2.00;;;;;;;20.27;71.95;100926.41;10266423;28;96824;-79
2023/09/29 02:30:56;;;;;;;3.00;2.00;;;;;;;20.13;72.85;100931.84;10267469;28;96726;-78
2023/09/29 02:35:59;;;;;;;5.53;1.90;;;;;;;20.01;73.10;100924.66;10294682;28;96800;-78
2023/09/29 02:41:07;;;;;;;2.13;1.40;;;;;;;19.84;74.49;100925.78;10294847;28;96646;-79
2023/09/29 02:46:15;;;;;;;2.60;1.63;;;;;;;19.69;75.24;100924.16;10294208;28;96582;-79
2023/09/29 02:51:19;;;;;;;2.42;1.30;;;;;;;19.65;74.63;100919.97;10294181;28;96576;-79
2023/09/29 02:56:26;;;;;;;2.17;1.20;;;;;;;19.62;74.16;100927.31;10271060;28;96819;-79
2023/09/29 03:01:30;;;;;;;3.15;1.40;;;;;;;19.45;75.05;100928.44;10252537;28;96829;-79
2023/09/29 03:06:33;;;;;;;2.33;1.33;;;;;;;19.39;75.26;100920.78;10293050;28;96763;-79
2023/09/29 03:11:39;;;;;;;3.42;1.20;;;;;;;19.41;75.60;100932.25;10293675;28;97197;-79
2023/09/29 03:16:43;;;;;;;1.40;1.02;;;;;;;19.41;74.69;100932.25;10292945;28;96783;-79
2023/09/29 03:21:48;;;;;;;1.53;1.10;;;;;;;19.42;74.48;100930.44;10292934;28;97289;-79
2023/09/29 03:26:53;;;;;;;2.22;1.35;;;;;;;19.43;74.46;100937.47;10292471;28;97201;-78
2023/09/29 03:31:57;;;;;;;2.40;1.27;;;;;;;19.41;74.18;100928.75;10293284;28;96711;-78
2023/09/29 03:37:02;;;;;;;2.70;1.50;;;;;;;19.20;75.54;100934.47;10291868;28;96743;-78
2023/09/29 03:42:06;;;;;;;2.58;1.17;;;;;;;19.17;75.94;100931.13;10292496;28;97044;-79
2023/09/29 03:47:11;;;;;;;3.33;1.50;;;;;;;19.24;75.46;100927.97;10291041;28;96769;-78
2023/09/29 03:52:15;;;;;;;3.63;1.75;;;;;;;19.30;76.24;100924.91;10292232;28;96760;-79
2023/09/29 03:57:19;;;;;;;3.17;1.40;;;;;;;19.32;75.91;100926.63;10260691;28;97429;-78
2023/09/29 04:02:22;;;;;;;;;;;;;;;19.28;77.05;100931.31;10251131;28;96832;-79
2023/09/29 04:07:25;;;;;;;4.57;1.90;;;;;;;19.16;76.89;100930.28;10251541;28;96815;-79
2023/09/29 04:12:30;;;;;;;2.65;1.77;;;;;;;19.17;76.92;100932.00;10274591;28;96813;-79
2023/09/29 04:17:33;;;;;;;;;;;;;;;19.10;78.12;100932.47;10291821;28;96749;-79
2023/09/29 04:22:36;;;;;;;2.22;1.40;;;;;;;19.05;76.81;100942.59;10292456;28;96678;-79
2023/09/29 04:27:41;;;;;;;2.75;1.50;;;;;;;19.00;76.92;100940.22;10290835;28;97454;-79
2023/09/29 04:32:47;;;;;;;3.25;1.80;;;;;;;19.06;77.04;100942.50;10291095;28;96718;-79
2023/09/29 04:37:51;;;;;;;3.03;1.88;;;;;;;18.98;77.54;100942.13;10289735;28;96605;-78
2023/09/29 04:42:55;;;;;;;3.00;1.88;;;;;;;19.01;77.72;100946.41;10291107;28;96787;-79
2023/09/29 04:47:58;;;;;;;;;;;;;;;19.05;78.42;100950.59;10291050;28;96590;-79
2023/09/29 04:53:02;;;;;;;3.13;2.08;;;;;;;19.01;77.49;100951.72;10283529;28;96952;-79
2023/09/29 04:58:09;;;;;;;5.50;2.10;;;;;;;19.02;77.37;100950.78;10208577;28;97352;-78
2023/09/29 05:03:13;;;;;;;2.67;1.92;;;;;;;18.96;77.41;100960.03;10251803;28;96968;-79
2023/09/29 05:08:19;;;;;;;3.60;2.03;;;;;;;18.97;77.77;100951.06;10289400;28;96723;-78
2023/09/29 05:13:24;;;;;;;4.18;1.85;;;;;;;18.99;77.47;100967.00;10289800;28;96580;-79
2023/09/29 05:18:28;;;;;;;3.83;1.88;;;;;;;19.01;77.70;100973.06;10289645;28;96737;-79
2023/09/29 05:23:33;;;;;;;2.65;1.65;;;;;;;19.02;77.43;100969.47;10289804;28;96628;-78
2023/09/29 05:28:41;;;;;;;2.58;1.58;;;;;;;19.02;77.21;100977.47;10221377;28;97383;-79
2023/09/29 05:33:47;;;;;;;4.28;1.90;;;;;;;19.04;77.13;100976.41;10208795;28;96869;-78
2023/09/29 05:38:51;;;;;;;3.28;1.60;;;;;;;18.99;77.41;100980.34;10276808;28;97001;-78
2023/09/29 05:44:00;;;;;;;3.17;1.70;;;;;;;18.99;76.91;100988.34;10289013;28;96671;-79
2023/09/29 05:49:04;;;;;;;3.33;1.90;;;;;;;18.97;76.92;100992.91;10288888;28;97220;-78
2023/09/29 05:54:09;;;;;;;2.92;1.73;;;;;;;18.99;77.07;100996.34;10275747;28;97351;-78
2023/09/29 05:59:18;;;;;;;1.95;1.52;;;;;;;19.04;76.60;101000.41;10248105;28;97060;-78
2023/09/29 06:04:22;;;;;;;2.05;1.50;;;;;;;19.08;76.11;101006.41;10248905;28;96627;-78
2023/09/29 06:09:26;;;;;;;3.83;1.80;;;;;;;19.10;75.92;101000.03;10254400;28;96736;-78
2023/09/29 06:14:34;;;;;;;3.25;1.60;;;;;;;18.94;76.22;101003.75;10288481;28;96568;-78
2023/09/29 06:19:38;;;;;;;2.78;1.67;;;;;;;18.96;76.86;101007.19;10286754;28;96763;-79
2023/09/29 06:24:44;;;;;;;3.00;1.50;;;;;;;18.85;77.80;101007.00;10294423;28;96590;-78
2023/09/29 06:29:50;;;;;;;4.05;1.95;;;;;;;18.75;77.95;101014.69;10272461;22;97365;-79
2023/09/29 06:34:54;;;;;;;2.83;1.50;;;;;;;18.84;77.18;101015.94;10243355;28;97529;-79
2023/09/29 06:39:58;;;;;;;;;;;;;;;18.92;77.91;101027.84;10216762;28;96761;-79
2023/09/29 06:45:09;;;;;;;4.05;1.98;;;;;;;18.94;76.47;101025.94;10253835;28;96994;-79
2023/09/29 06:50:15;;;;;;;3.95;2.00;;;;;;;19.04;76.24;101040.44;10254088;28;96940;-78
2023/09/29 06:55:20;;;;;;;3.38;2.00;;;;;;;19.13;75.99;101045.19;10254245;28;97815;-78
2023/09/29 07:00:27;;;;;;;3.33;1.70;;;;;;;19.05;76.13;101043.97;10220983;28;96834;-79
2023/09/29 07:05:30;;;;;;;4.40;2.05;;;;;;;19.14;75.84;101051.41;10212850;28;96683;-78
2023/09/29 07:10:34;;;;;;;5.25;1.95;;;;;;;19.16;75.86;101055.66;10212116;28;97258;-79
2023/09/29 07:15:40;;;;;;;2.22;1.50;;;;;;;19.17;76.12;101064.53;10212287;28;96633;-79
2023/09/29 07:20:45;;;;;;;2.40;1.67;;;;;;;20.78;72.82;101059.22;10213402;28;97376;-79
2023/09/29 07:25:50;;;;;;;1.58;1.13;;;;;;;21.95;70.59;101059.75;10212817;28;97279;-79
2023/09/29 07:30:56;;;;;;;1.23;0.90;;;;;;;22.84;68.39;101061.84;10211497;28;97552;-79
2023/09/29 07:36:00;;;;;;;3.38;1.30;;;;;;;23.86;66.36;101068.03;10211895;28;98410;-79
2023/09/29 07:41:05;;;;;;;2.95;1.52;;;;;;;24.97;63.30;101071.97;10211758;28;96845;-79
2023/09/29 07:46:11;;;;;;;2.10;1.30;;;;;;;25.27;61.61;101077.41;10212463;28;97346;-80
2023/09/29 07:51:15;;;;;;;1.67;1.10;;;;;;;26.00;59.52;101085.25;10216591;28;96654;-80
2023/09/29 07:56:21;;;;;;;2.20;1.40;;;;;;;26.64;58.12;101088.31;10252335;28;96763;-80
2023/09/29 08:01:31;;;;;;;3.22;1.33;;;;;;;27.93;54.94;101086.53;10250027;28;96776;-79
2023/09/29 08:06:36;;;;;;;1.40;0.98;;;;;;;28.38;53.28;101088.38;10251522;28;97281;-80
2023/09/29 08:11:43;;;;;;;1.45;0.98;;;;;;;28.51;52.88;101097.84;10250424;28;96690;-80
2023/09/29 08:16:54;;;;;;;2.13;1.40;;;;;;;29.19;48.94;101090.81;10251349;28;96998;-80
2023/09/29 08:21:58;;;;;;;2.03;1.30;;;;;;;29.33;48.68;101079.34;10250768;28;96730;-80
2023/09/29 08:27:03;;;;;;;3.05;1.17;;;;;;;29.13;48.89;101086.88;10230574;28;97403;-80
2023/09/29 08:32:09;;;;;;;1.95;1.17;;;;;;;30.06;46.02;101088.69;10209966;28;96774;-80
2023/09/29 08:37:13;;;;;;;2.97;1.33;;;;;;;30.59;45.31;101089.19;10210869;28;97276;-80
2023/09/29 08:42:38;;;;;;;2.10;1.40;;;;;;;30.62;43.81;101085.25;10214907;28;96589;-80
2023/09/29 08:47:53;;;;;;;1.73;1.40;;;;;;;29.99;44.11;101084.94;10249829;28;96816;-80
2023/09/29 08:53:01;;;;;;;2.45;1.30;;;;;;;30.75;43.92;101088.34;10249429;28;96548;-80
2023/09/29 08:58:07;;;;;;;1.67;1.20;;;;;;;31.12;42.74;101084.06;10249356;28;96792;-80
2023/09/29 09:03:17;;;;;;;3.10;1.52;;;;;;;31.31;41.77;101089.16;10249188;28;97523;-80
2023/09/29 09:08:23;;;;;;;2.03;1.40;;;;;;;30.24;42.93;101090.31;10249375;28;97530;-80
2023/09/29 09:13:30;;;;;;;3.05;1.52;;;;;;;30.89;42.86;101087.66;10249529;28;96635;-80
2023/09/29 09:18:37;;;;;;;2.25;1.48;;;;;;;31.82;41.49;101092.44;10248465;28;96679;-80
2023/09/29 09:23:40;;;;;;;2.22;1.38;;;;;;;31.71;41.27;101088.19;10249307;28;96690;-80
2023/09/29 09:28:46;;;;;;;2.65;1.40;;;;;;;33.35;38.83;101092.16;10230591;28;96623;-80
2023/09/29 09:33:55;;;;;;;2.10;1.40;;;;;;;33.11;39.08;101090.53;10209025;28;96796;-81
2023/09/29 09:39:03;;;;;;;2.50;1.55;;;;;;;32.78;39.31;101089.09;10208355;28;96892;-80
2023/09/29 09:44:07;;;;;;;2.17;1.40;;;;;;;33.48;38.28;101090.53;10207058;28;96764;-81
2023/09/29 09:49:15;;;;;;;2.17;1.33;;;;;;;33.32;37.00;101082.47;10208106;28;97031;-80
2023/09/29 09:54:23;;;;;;;2.25;1.20;;;;;;;33.82;37.38;101079.00;10208848;28;96708;-81
2023/09/29 09:59:28;;;;;;;3.25;1.42;;;;;;;34.16;36.63;101083.88;10213704;28;96840;-81
2023/09/29 10:04:36;;;;;;;2.53;1.17;;;;;;;34.61;35.04;101078.06;10214825;28;96707;-81
2023/09/29 10:09:43;;;;;;;1.77;1.15;;;;;;;34.86;35.58;101073.00;10215151;28;96984;-81
2023/09/29 10:14:47;;;;;;;1.60;1.20;;;;;;;33.96;36.56;101063.63;10214561;28;96878;-81
2023/09/29 10:19:54;;;;;;;1.75;1.10;;;;;;;34.55;35.02;101065.16;10215439;28;97769;-81
2023/09/29 10:24:59;;;;;;;2.40;1.20;;;;;;;34.21;36.19;101057.63;10215032;28;96704;-81
2023/09/29 10:30:17;;;;;;;1.83;1.10;;;;;;;34.95;34.78;101050.81;10213696;28;97301;-81
2023/09/29 10:35:24;;;;;;;2.97;1.50;;;;;;;33.90;36.37;101042.53;10213124;28;96614;-81
2023/09/29 10:40:32;;;;;;;3.33;1.50;;;;;;;34.38;35.72;101041.84;10213129;28;96774;-81
2023/09/29 10:45:37;;;;;;;1.88;1.17;;;;;;;33.97;36.25;101027.09;10253634;28;96619;-81
2023/09/29 10:50:44;;;;;;;1.08;0.82;;;;;;;33.86;36.10;101022.09;10253725;28;96692;-81
2023/09/29 10:55:49;;;;;;;2.30;1.20;;;;;;;34.72;35.69;101014.63;10253621;28;96844;-81
2023/09/29 11:00:56;;;;;;;1.60;1.10;;;;;;;35.13;34.79;101009.28;10252364;28;96792;-81
2023/09/29 11:06:08;;;;;;;1.98;1.20;;;;;;;34.10;35.51;101003.50;10253573;28;97049;-81
2023/09/29 11:11:11;;;;;;;2.10;1.03;;;;;;;33.88;36.03;100985.38;10252538;28;96749;-81
2023/09/29 11:16:18;;;;;;;1.40;1.10;;;;;;;33.93;35.87;100993.00;10252186;28;97296;-81
2023/09/29 11:21:33;;;;;;;1.08;0.80;;;;;;;34.90;34.53;100984.03;10252749;28;96865;-81
2023/09/29 11:26:40;;;;;;;1.05;0.80;;;;;;;34.79;34.23;100969.03;10240514;28;96784;-81
2023/09/29 11:31:45;;;;;;;1.40;0.98;;;;;;;35.27;33.84;100976.28;10212434;28;97321;-81
2023/09/29 11:36:51;;;;;;;1.40;0.85;;;;;;;35.00;33.83;100970.88;10211789;28;96875;-81
2023/09/29 11:41:57;;;;;;;1.50;0.90;;;;;;;34.72;33.68;100953.59;10211654;28;97200;-81
2023/09/29 11:47:01;;;;;;;0.80;0.70;;;;;;;34.78;33.56;100959.13;10212097;28;97026;-81
2023/09/29 11:52:05;;;;;;;1.00;0.70;;;;;;;35.81;32.37;100939.91;10212291;28;97007;-81
2023/09/29 11:57:10;;;;;;;1.65;0.70;;;;;;;35.81;32.65;100940.72;10211405;28;97522;-81
2023/09/29 12:02:14;;;;;;;1.20;0.90;;;;;;;36.40;31.59;100930.72;10211264;28;96717;-81
2023/09/29 12:07:20;;;;;;;0.93;0.70;;;;;;;35.51;31.07;100929.25;10211478;28;96599;-81
2023/09/29 12:12:24;;;;;;;0.82;0.60;;;;;;;35.89;30.61;100921.38;10211057;28;96847;-81
2023/09/29 12:17:28;;;;;;;1.02;0.43;;;;;;;36.61;29.27;100910.44;10209715;28;96633;-81
2023/09/29 12:22:33;;;;;;;0.40;0.30;;;;;;;36.35;29.04;100911.28;10210083;28;96683;-81
2023/09/29 12:27:37;;;;;;;0.82;0.20;;;;;;;36.58;28.86;100910.88;10211077;28;96641;-82
2023/09/29 12:32:41;;;;;;;0.77;0.60;;;;;;;36.67;28.67;100904.13;10210243;28;96752;-81
2023/09/29 12:37:46;;;;;;;0.95;0.50;;;;;;;37.03;28.16;100901.75;10209827;28;97073;-79
2023/09/29 12:42:50;;;;;;;0.63;0.45;;;;;;;37.36;28.12;100904.38;10210076;28;96742;-79
2023/09/29 12:47:56;;;;;;;0.70;0.32;;;;;;;37.37;27.82;100892.31;10209541;28;97484;-79
2023/09/29 12:53:03;;;;;;;0.68;0.38;;;;;;;37.72;27.30;100880.72;10210270;28;96674;-79
2023/09/29 12:58:08;;;;;;;0.50;0.40;;;;;;;38.17;26.70;100872.34;10221072;28;98404;-79
2023/09/29 13:03:11;;;;;;;0.38;0.38;;;;;;;37.72;26.90;100866.97;10249885;28;96707;-79
2023/09/29 13:08:18;;;;;;;0.93;0.52;;;;;;;38.19;27.27;100860.09;10248312;28;96630;-80
2023/09/29 13:13:22;;;;;;;0.30;0.30;;;;;;;37.92;27.07;100844.03;10249480;28;97255;-79
2023/09/29 13:18:26;;;;;;;0.50;0.30;;;;;;;37.97;27.70;100839.56;10248467;28;97201;-79
2023/09/29 13:23:36;;;;;;;0.88;0.50;;;;;;;37.84;27.24;100828.66;10249338;28;97326;-79
2023/09/29 13:28:39;;;;;;;1.58;0.47;;;;;;;38.19;27.55;100831.72;10221755;28;96886;-79
2023/09/29 13:33:44;;;;;;;0.82;0.50;;;;;;;38.58;26.45;100831.34;10208381;28;96714;-79
2023/09/29 13:38:49;;;;;;;0.60;0.38;;;;;;;37.76;27.45;100817.91;10208040;28;96551;-79
2023/09/29 13:43:55;;;;;;;0.90;0.55;;;;;;;39.08;26.49;100816.38;10209196;28;96700;-79
2023/09/29 13:48:59;;;;;;;0.80;0.30;;;;;;;38.23;27.13;100813.72;10209138;28;96617;-79
2023/09/29 13:54:04;;;;;;;0.52;0.47;;;;;;;38.64;26.61;100819.44;10207732;28;97195;-79
2023/09/29 13:59:08;;;;;;;2.17;0.70;;;;;;;38.42;27.14;100799.78;10207204;28;96601;-79
2023/09/29 14:04:11;;;;;;;1.67;0.47;;;;;;;39.03;26.24;100798.88;10208370;28;97272;-79
2023/09/29 14:09:18;;;;;;;0.88;0.43;;;;;;;39.41;26.24;100794.75;10207912;28;97599;-79
2023/09/29 14:14:21;;;;;;;0.85;0.50;;;;;;;38.54;27.30;100789.69;10207429;28;96715;-79
2023/09/29 14:19:25;;;;;;;0.93;0.50;;;;;;;38.92;26.09;100802.41;10207694;28;97050;-79
2023/09/29 14:24:32;;;;;;;0.80;0.50;;;;;;;37.85;27.30;100791.03;10208359;28;96667;-79
2023/09/29 14:29:35;;;;;;;1.00;0.43;;;;;;;37.37;28.39;100780.56;10206311;28;96941;-78
2023/09/29 14:34:39;;;;;;;0.43;0.30;;;;;;;37.51;27.75;100775.81;10207842;28;96569;-78
2023/09/29 14:39:46;;;;;;;0.65;0.40;;;;;;;37.88;27.71;100785.06;10206860;28;97266;-78
2023/09/29 14:44:51;;;;;;;0.40;0.30;;;;;;;38.20;26.30;100786.66;10212103;28;97033;-79
2023/09/29 14:49:56;;;;;;;0.75;0.43;;;;;;;37.04;28.60;100784.53;10211933;28;96844;-78
2023/09/29 14:55:04;;;;;;;0.55;0.40;;;;;;;36.78;28.47;100773.69;10213488;28;96611;-78
2023/09/29 15:00:12;;;;;;;0.43;0.40;;;;;;;36.84;27.97;100773.66;10213403;28;96736;-78
2023/09/29 15:05:16;;;;;;;0.85;0.60;;;;;;;36.37;28.88;100768.50;10213499;28;97033;-78
2023/09/29 15:10:20;;;;;;;0.43;0.40;;;;;;;36.13;28.87;100767.31;10212695;28;97013;-78
2023/09/29 15:15:25;;;;;;;1.00;0.50;;;;;;;35.44;29.63;100766.84;10213233;28;97199;-78
2023/09/29 15:20:28;;;;;;;0.93;0.55;;;;;;;35.10;30.66;100768.84;10212601;28;97545;-78
2023/09/29 15:25:35;;;;;;;0.73;0.50;;;;;;;34.78;31.29;100769.56;10213229;28;97150;-81
2023/09/29 15:30:41;;;;;;;0.55;0.40;;;;;;;34.59;31.39;100771.19;10212742;28;96637;-81
2023/09/29 15:35:51;;;;;;;1.10;0.40;;;;;;;34.78;32.00;100759.47;10212119;28;96759;-80
2023/09/29 15:40:56;;;;;;;1.38;0.52;;;;;;;34.14;32.73;100766.25;10210965;28;97309;-80
2023/09/29 15:46:10;;;;;;;1.13;0.50;;;;;;;34.28;32.99;100762.56;10211545;28;97130;-80
2023/09/29 15:51:13;;;;;;;0.47;0.40;;;;;;;34.28;32.93;100763.38;10212370;28;96920;-80
2023/09/29 15:56:18;;;;;;;0.85;0.50;;;;;;;34.25;33.48;100761.06;10210919;28;96702;-80
2023/09/29 16:01:22;;;;;;;0.75;0.55;;;;;;;34.06;33.56;100764.50;10211522;28;96620;-80
2023/09/29 16:06:25;;;;;;;0.88;0.40;;;;;;;33.94;33.97;100757.91;10234201;28;96770;-80
2023/09/29 16:11:30;;;;;;;1.08;0.47;;;;;;;33.80;34.05;100763.47;10251200;28;96736;-80
2023/09/29 16:16:36;;;;;;;0.68;0.40;;;;;;;33.72;34.70;100760.84;10252080;28;96719;-80
2023/09/29 16:21:40;;;;;;;0.80;0.52;;;;;;;33.58;34.92;100759.03;10249804;28;96945;-80
2023/09/29 16:26:45;;;;;;;0.57;0.55;;;;;;;33.46;35.25;100759.59;10228017;28;96746;-80
2023/09/29 16:31:48;;;;;;;1.42;0.60;;;;;;;33.28;35.52;100756.44;10168983;28;96926;-80
2023/09/29 16:36:54;;;;;;;0.57;0.50;;;;;;;33.07;36.54;100756.41;10170618;28;96765;-80
2023/09/29 16:41:58;;;;;;;0.47;0.30;;;;;;;32.92;36.11;100758.34;10205505;28;96743;-80
2023/09/29 16:47:02;;;;;;;0.95;0.52;;;;;;;32.78;36.85;100751.00;10209748;28;96582;-80
2023/09/29 16:52:07;;;;;;;1.48;0.55;;;;;;;32.65;37.20;100756.31;10209957;28;96679;-80
2023/09/29 16:57:12;;;;;;;0.95;0.70;;;;;;;32.50;39.24;100763.63;10209986;28;97279;-80
2023/09/29 17:02:16;;;;;;;2.95;0.85;;;;;;;32.33;39.60;100756.66;10209685;28;96705;-80
2023/09/29 17:07:20;;;;;;;0.60;0.60;;;;;;;32.20;39.68;100751.88;10210228;28;96762;-80
2023/09/29 17:12:26;;;;;;;1.15;0.82;;;;;;;32.04;40.95;100751.22;10209581;28;96664;-80
2023/09/29 17:17:32;;;;;;;1.73;1.00;;;;;;;31.82;42.38;100765.75;10209325;28;97436;-80
2023/09/29 17:22:36;;;;;;;1.73;0.98;;;;;;;31.61;42.56;100765.56;10207510;28;96679;-80
2023/09/29 17:27:43;;;;;;;1.83;1.20;;;;;;;31.43;43.43;100770.47;10207925;28;97356;-80
2023/09/29 17:32:48;;;;;;;2.00;1.35;;;;;;;31.27;44.02;100766.84;10208969;28;97023;-80
2023/09/29 17:37:53;;;;;;;1.60;1.10;;;;;;;30.96;45.40;100766.00;10208467;28;96685;-80
2023/09/29 17:42:57;;;;;;;1.52;1.00;;;;;;;30.80;45.58;100771.50;10208552;28;98118;-80
2023/09/29 17:48:01;;;;;;;3.03;1.10;;;;;;;30.57;46.77;100791.47;10208532;28;96808;-80
2023/09/29 17:53:04;;;;;;;1.95;1.08;;;;;;;30.31;47.30;100786.31;10208064;28;96653;-80
2023/09/29 17:58:09;;;;;;;3.10;1.20;;;;;;;30.07;48.18;100792.59;10208826;28;96642;-79
2023/09/29 18:03:12;;;;;;;2.55;1.30;;;;;;;29.90;48.56;100800.94;10208112;28;96626;-80
2023/09/29 18:08:16;;;;;;;1.88;1.25;;;;;;;29.77;48.88;100797.91;10207920;28;96896;-80
2023/09/29 18:13:23;;;;;;;3.90;1.38;;;;;;;29.48;49.91;100803.81;10206138;28;96829;-80
2023/09/29 18:18:26;;;;;;;2.65;1.35;;;;;;;29.21;50.59;100806.78;10210805;28;96771;-80
2023/09/29 18:23:30;;;;;;;2.95;1.73;;;;;;;29.05;50.98;100804.91;10215922;28;97642;-79
2023/09/29 18:28:36;;;;;;;3.00;1.70;;;;;;;28.92;51.80;100811.81;10213661;28;96685;-80
2023/09/29 18:33:41;;;;;;;3.22;1.70;;;;;;;28.74;52.44;100817.28;10214244;28;96691;-80
2023/09/29 18:38:44;;;;;;;4.30;1.80;;;;;;;28.45;53.29;100813.25;10214504;28;97024;-80
2023/09/29 18:43:49;;;;;;;2.80;1.73;;;;;;;28.38;53.53;100817.63;10213630;28;96919;-79
2023/09/29 18:48:52;;;;;;;3.60;1.63;;;;;;;28.19;53.69;100826.78;10214665;28;96984;-80
2023/09/29 18:53:56;;;;;;;3.03;1.80;;;;;;;28.03;53.98;100829.41;10213632;28;96755;-80
2023/09/29 18:59:04;;;;;;;2.60;1.67;;;;;;;27.81;54.51;100821.75;10254282;22;102626;-79
2023/09/29 19:04:12;;;;;;;3.03;1.55;;;;;;;27.93;53.97;100826.78;10329892;28;97240;-79
2023/09/29 19:09:17;;;;;;;2.88;1.48;;;;;;;27.68;54.55;100842.97;10335279;28;97399;-79
2023/09/29 19:14:22;;;;;;;2.90;1.63;;;;;;;27.49;55.30;100834.97;10335114;28;97177;-79
2023/09/29 19:19:25;;;;;;;3.30;1.77;;;;;;;27.66;54.57;100844.94;10334100;28;97076;-79
2023/09/29 19:24:28;;;;;;;3.08;1.70;;;;;;;27.43;55.70;100841.00;10334676;28;97637;-79
2023/09/29 19:29:34;;;;;;;2.55;1.80;;;;;;;27.21;56.00;100853.13;10348085;28;99259;-79
2023/09/29 19:34:38;;;;;;;4.03;2.08;;;;;;;26.93;57.08;100867.59;10375529;28;97221;-79
2023/09/29 19:39:42;;;;;;;3.85;2.00;;;;;;;27.02;56.76;100874.81;10375871;28;97575;-79
2023/09/29 19:44:51;;;;;;;2.60;1.98;;;;;;;26.92;57.34;100874.84;10373995;28;96614;-79
2023/09/29 19:49:56;;;;;;;2.65;1.80;;;;;;;26.84;57.26;100882.00;10333983;28;96799;-79
2023/09/29 19:55:00;;;;;;;4.00;2.20;;;;;;;26.55;58.27;100884.81;10332477;28;96682;-79
2023/09/29 20:00:08;;;;;;;2.25;1.58;;;;;;;26.44;58.63;100889.53;10333232;28;96860;-79
2023/09/29 20:05:14;;;;;;;3.92;1.90;;;;;;;26.47;58.06;100890.09;10333824;28;97533;-79
2023/09/29 20:10:18;;;;;;;3.38;1.92;;;;;;;26.28;58.56;100900.91;10333180;28;96575;-79
2023/09/29 20:15:23;;;;;;;3.00;1.90;;;;;;;26.20;58.53;100906.19;10332953;28;96665;-79
2023/09/29 20:20:26;;;;;;;3.50;1.80;;;;;;;25.96;59.33;100910.31;10333249;28;97194;-79
2023/09/29 20:25:32;;;;;;;1.97;1.47;;;;;;;26.04;58.95;100907.78;10332389;28;97019;-79
2023/09/29 20:30:36;;;;;;;3.17;1.77;;;;;;;26.22;58.36;100923.09;10299810;28;97135;-79
2023/09/29 20:35:40;;;;;;;3.55;2.05;;;;;;;26.02;58.79;100925.94;10291814;28;96773;-79
2023/09/29 20:40:43;;;;;;;4.13;2.20;;;;;;;26.05;58.91;100922.94;10331984;28;97085;-79
2023/09/29 20:45:48;;;;;;;2.58;1.75;;;;;;;25.96;59.17;100916.56;10331182;28;97056;-79
2023/09/29 20:50:52;;;;;;;2.30;1.90;;;;;;;26.00;58.77;100922.53;10331739;28;97609;-79
2023/09/29 20:55:55;;;;;;;4.17;2.37;;;;;;;25.80;59.37;100918.97;10331867;28;96707;-79
2023/09/29 21:01:00;;;;;;;4.22;2.58;;;;;;;25.57;59.69;100918.34;10330924;28;96928;-79
2023/09/29 21:06:05;;;;;;;5.03;2.75;;;;;;;25.45;60.53;100915.94;10331655;28;96626;-79
2023/09/29 21:11:08;;;;;;;4.10;2.47;;;;;;;25.29;61.01;100915.63;10343215;28;96869;-79
2023/09/29 21:16:12;;;;;;;3.07;2.13;;;;;;;25.07;62.24;100923.94;10372301;28;97137;-80
2023/09/29 21:21:18;;;;;;;2.90;1.48;;;;;;;24.88;62.65;100913.06;10372634;28;96670;-80
2023/09/29 21:26:23;;;;;;;3.55;2.10;;;;;;;24.71;63.63;100923.44;10371889;28;97001;-80
2023/09/29 21:31:27;;;;;;;3.15;1.90;;;;;;;24.61;64.01;100927.94;10331770;28;97353;-80
2023/09/29 21:36:34;;;;;;;2.85;1.58;;;;;;;24.56;63.92;100927.50;10329364;28;96755;-79
2023/09/29 21:41:38;;;;;;;2.90;1.67;;;;;;;24.40;64.72;100931.63;10330165;28;96777;-79
2023/09/29 21:46:46;;;;;;;;;;;;;;;24.23;66.81;100935.75;10331719;28;97286;-80
2023/09/29 21:51:50;;;;;;;3.10;1.52;;;;;;;24.11;65.60;100939.47;10331427;28;96819;-79
2023/09/29 21:56:54;;;;;;;2.55;1.67;;;;;;;24.07;65.85;100937.16;10312669;28;97183;-79
2023/09/29 22:02:01;;;;;;;5.70;1.77;;;;;;;23.94;66.63;100940.03;10307713;28;97248;-80
2023/09/29 22:07:05;;;;;;;4.35;1.48;;;;;;;23.97;65.84;100939.78;10336945;28;96704;-80
2023/09/29 22:12:10;;;;;;;2.27;1.70;;;;;;;24.19;64.77;100945.03;10337589;28;96672;-79
2023/09/29 22:17:16;;;;;;;3.97;1.70;;;;;;;23.80;67.33;100944.84;10336679;28;96932;-79
2023/09/29 22:22:19;;;;;;;2.30;1.75;;;;;;;23.73;68.06;100947.22;10336867;28;96602;-79
2023/09/29 22:27:22;;;;;;;2.40;1.50;;;;;;;23.64;68.37;100940.75;10335461;28;97146;-80
2023/09/29 22:32:27;;;;;;;2.37;1.80;;;;;;;23.50;68.57;100954.44;10336517;28;97268;-80
2023/09/29 22:37:31;;;;;;;3.45;1.85;;;;;;;23.46;69.31;100946.75;10336709;28;97049;-80
2023/09/29 22:42:34;;;;;;;2.00;1.40;;;;;;;23.36;69.39;100953.84;10335862;28;97133;-80
2023/09/29 22:47:40;;;;;;;2.75;1.63;;;;;;;23.33;69.04;100935.31;10335634;28;97150;-80
2023/09/29 22:52:46;;;;;;;2.40;1.58;;;;;;;23.19;69.97;100949.88;10344441;28;96779;-80
2023/09/29 22:57:51;;;;;;;2.38;1.52;;;;;;;23.27;68.82;100943.84;10311263;28;97410;-80
2023/09/29 23:03:00;;;;;;;2.25;1.38;;;;;;;23.47;67.29;100943.09;10294767;28;97571;-80
2023/09/29 23:08:10;;;;;;;2.38;1.40;;;;;;;23.71;65.93;100943.78;10293731;28;96735;-79
2023/09/29 23:13:15;;;;;;;2.75;1.40;;;;;;;23.77;65.23;100937.06;10369831;28;96639;-79
2023/09/29 23:18:21;;;;;;;;;;;;;;;23.73;65.22;100947.22;10375483;28;96670;-79
2023/09/29 23:23:24;;;;;;;2.33;1.58;;;;;;;23.56;65.92;100945.06;10376107;28;96697;-80
2023/09/29 23:28:29;;;;;;;2.70;1.30;;;;;;;23.56;65.95;100953.97;10358113;28;96628;-79